sensor_id;sensor_type;location;lat;lon;timestamp;P1;durP1;ratioP1;P2;durP2;ratioP2
36585;SDS011;22591;48.314;11.562;2023-05-19T00:00:55;4.82;;;4.22;;
36585;SDS011;22591;48.314;11.562;2023-05-19T00:03:22;5.85;;;4.75;;
36585;SDS011;22591;48.314;11.562;2023-05-19T00:05:48;7.28;;;4.75;;
36585;SDS011;22591;48.314;11.562;2023-05-19T00:08:18;5.32;;;4.68;;
36585;SDS011;22591;48.314;11.562;2023-05-19T00:10:44;8.05;;;5.13;;
36585;SDS011;22591;48.314;11.562;2023-05-19T00:13:10;6.05;;;4.60;;
36585;SDS011;22591;48.314;11.562;2023-05-19T00:15:36;5.38;;;4.80;;
36585;SDS011;22591;48.314;11.562;2023-05-19T00:18:02;10.02;;;5.25;;
36585;SDS011;22591;48.314;11.562;2023-05-19T00:20:28;10.50;;;5.43;;
36585;SDS011;22591;48.314;11.562;2023-05-19T00:22:53;7.38;;;5.13;;
36585;SDS011;22591;48.314;11.562;2023-05-19T00:25:19;6.25;;;5.65;;
36585;SDS011;22591;48.314;11.562;2023-05-19T00:27:44;12.63;;;6.03;;
36585;SDS011;22591;48.314;11.562;2023-05-19T00:30:10;9.45;;;5.75;;
36585;SDS011;22591;48.314;11.562;2023-05-19T00:32:36;5.80;;;5.18;;
36585;SDS011;22591;48.314;11.562;2023-05-19T00:35:01;10.80;;;6.55;;
36585;SDS011;22591;48.314;11.562;2023-05-19T00:37:27;8.48;;;5.90;;
36585;SDS011;22591;48.314;11.562;2023-05-19T00:39:52;10.52;;;5.55;;
36585;SDS011;22591;48.314;11.562;2023-05-19T00:42:18;7.80;;;5.32;;
36585;SDS011;22591;48.314;11.562;2023-05-19T00:44:45;12.65;;;6.47;;
36585;SDS011;22591;48.314;11.562;2023-05-19T00:47:10;9.48;;;6.07;;
36585;SDS011;22591;48.314;11.562;2023-05-19T00:49:36;12.95;;;6.65;;
36585;SDS011;22591;48.314;11.562;2023-05-19T00:52:02;8.45;;;5.90;;
36585;SDS011;22591;48.314;11.562;2023-05-19T00:54:31;7.25;;;6.03;;
36585;SDS011;22591;48.314;11.562;2023-05-19T00:56:57;6.55;;;5.90;;
36585;SDS011;22591;48.314;11.562;2023-05-19T00:59:23;8.80;;;5.40;;
36585;SDS011;22591;48.314;11.562;2023-05-19T01:01:49;10.02;;;6.03;;
36585;SDS011;22591;48.314;11.562;2023-05-19T01:04:15;12.20;;;7.28;;
36585;SDS011;22591;48.314;11.562;2023-05-19T01:06:46;7.80;;;5.97;;
36585;SDS011;22591;48.314;11.562;2023-05-19T01:09:12;9.55;;;6.07;;
36585;SDS011;22591;48.314;11.562;2023-05-19T01:11:38;9.07;;;6.22;;
36585;SDS011;22591;48.314;11.562;2023-05-19T01:14:03;7.50;;;6.10;;
36585;SDS011;22591;48.314;11.562;2023-05-19T01:31:17;11.38;;;6.47;;
36585;SDS011;22591;48.314;11.562;2023-05-19T01:33:47;10.18;;;6.28;;
36585;SDS011;22591;48.314;11.562;2023-05-19T01:36:15;7.70;;;6.32;;
36585;SDS011;22591;48.314;11.562;2023-05-19T01:38:43;12.38;;;6.65;;
36585;SDS011;22591;48.314;11.562;2023-05-19T01:41:11;10.55;;;6.25;;
36585;SDS011;22591;48.314;11.562;2023-05-19T01:43:38;7.63;;;5.60;;
36585;SDS011;22591;48.314;11.562;2023-05-19T01:46:04;8.55;;;6.07;;
36585;SDS011;22591;48.314;11.562;2023-05-19T01:48:31;7.00;;;6.32;;
36585;SDS011;22591;48.314;11.562;2023-05-19T01:50:58;9.13;;;6.35;;
36585;SDS011;22591;48.314;11.562;2023-05-19T01:53:23;10.55;;;6.25;;
36585;SDS011;22591;48.314;11.562;2023-05-19T01:55:50;10.38;;;5.63;;
36585;SDS011;22591;48.314;11.562;2023-05-19T01:58:35;6.65;;;6.03;;
36585;SDS011;22591;48.314;11.562;2023-05-19T02:01:07;11.10;;;6.57;;
36585;SDS011;22591;48.314;11.562;2023-05-19T02:09:40;10.73;;;6.05;;
36585;SDS011;22591;48.314;11.562;2023-05-19T02:12:24;10.95;;;6.43;;
36585;SDS011;22591;48.314;11.562;2023-05-19T02:17:28;12.43;;;6.78;;
36585;SDS011;22591;48.314;11.562;2023-05-19T02:19:57;8.20;;;6.00;;
36585;SDS011;22591;48.314;11.562;2023-05-19T02:22:22;11.27;;;6.72;;
36585;SDS011;22591;48.314;11.562;2023-05-19T02:24:48;8.80;;;5.93;;
36585;SDS011;22591;48.314;11.562;2023-05-19T02:27:15;10.10;;;6.15;;
36585;SDS011;22591;48.314;11.562;2023-05-19T02:29:41;8.23;;;6.07;;
36585;SDS011;22591;48.314;11.562;2023-05-19T02:32:07;8.52;;;6.05;;
36585;SDS011;22591;48.314;11.562;2023-05-19T02:34:32;12.02;;;6.00;;
36585;SDS011;22591;48.314;11.562;2023-05-19T02:36:58;9.10;;;5.57;;
36585;SDS011;22591;48.314;11.562;2023-05-19T02:39:23;8.50;;;5.55;;
36585;SDS011;22591;48.314;11.562;2023-05-19T02:41:50;10.95;;;6.63;;
36585;SDS011;22591;48.314;11.562;2023-05-19T02:44:15;7.97;;;5.90;;
36585;SDS011;22591;48.314;11.562;2023-05-19T02:46:41;10.20;;;6.28;;
36585;SDS011;22591;48.314;11.562;2023-05-19T02:49:06;12.95;;;7.35;;
36585;SDS011;22591;48.314;11.562;2023-05-19T02:51:32;8.43;;;6.63;;
36585;SDS011;22591;48.314;11.562;2023-05-19T02:53:57;11.82;;;7.18;;
36585;SDS011;22591;48.314;11.562;2023-05-19T02:56:23;10.18;;;6.70;;
36585;SDS011;22591;48.314;11.562;2023-05-19T02:58:48;7.65;;;6.53;;
36585;SDS011;22591;48.314;11.562;2023-05-19T03:01:14;6.97;;;5.85;;
36585;SDS011;22591;48.314;11.562;2023-05-19T03:03:40;12.15;;;6.60;;
36585;SDS011;22591;48.314;11.562;2023-05-19T03:06:05;10.95;;;7.07;;
36585;SDS011;22591;48.314;11.562;2023-05-19T03:08:32;11.63;;;7.10;;
36585;SDS011;22591;48.314;11.562;2023-05-19T03:10:58;18.75;;;7.05;;
36585;SDS011;22591;48.314;11.562;2023-05-19T03:13:24;13.07;;;6.97;;
36585;SDS011;22591;48.314;11.562;2023-05-19T03:15:50;10.27;;;6.38;;
36585;SDS011;22591;48.314;11.562;2023-05-19T03:18:15;8.32;;;7.47;;
36585;SDS011;22591;48.314;11.562;2023-05-19T03:20:41;13.38;;;7.65;;
36585;SDS011;22591;48.314;11.562;2023-05-19T03:23:08;13.70;;;7.43;;
36585;SDS011;22591;48.314;11.562;2023-05-19T03:25:34;12.20;;;7.60;;
36585;SDS011;22591;48.314;11.562;2023-05-19T03:28:00;12.45;;;7.45;;
36585;SDS011;22591;48.314;11.562;2023-05-19T03:30:25;13.13;;;7.50;;
36585;SDS011;22591;48.314;11.562;2023-05-19T03:32:51;10.30;;;6.82;;
36585;SDS011;22591;48.314;11.562;2023-05-19T03:35:17;8.27;;;6.57;;
36585;SDS011;22591;48.314;11.562;2023-05-19T03:37:42;21.35;;;8.35;;
36585;SDS011;22591;48.314;11.562;2023-05-19T03:40:08;10.40;;;6.78;;
36585;SDS011;22591;48.314;11.562;2023-05-19T03:42:34;10.50;;;7.03;;
36585;SDS011;22591;48.314;11.562;2023-05-19T03:45:00;14.07;;;7.13;;
36585;SDS011;22591;48.314;11.562;2023-05-19T03:47:26;14.52;;;7.25;;
36585;SDS011;22591;48.314;11.562;2023-05-19T03:49:51;12.95;;;7.60;;
36585;SDS011;22591;48.314;11.562;2023-05-19T03:52:17;9.55;;;7.10;;
36585;SDS011;22591;48.314;11.562;2023-05-19T03:54:42;14.23;;;6.57;;
36585;SDS011;22591;48.314;11.562;2023-05-19T03:57:08;11.63;;;7.05;;
36585;SDS011;22591;48.314;11.562;2023-05-19T03:59:37;11.25;;;7.07;;
36585;SDS011;22591;48.314;11.562;2023-05-19T04:02:05;11.60;;;6.72;;
36585;SDS011;22591;48.314;11.562;2023-05-19T04:04:30;11.40;;;5.82;;
36585;SDS011;22591;48.314;11.562;2023-05-19T04:06:56;8.80;;;6.15;;
36585;SDS011;22591;48.314;11.562;2023-05-19T04:09:22;16.13;;;6.18;;
36585;SDS011;22591;48.314;11.562;2023-05-19T04:11:50;9.15;;;6.32;;
36585;SDS011;22591;48.314;11.562;2023-05-19T04:14:15;13.07;;;6.65;;
36585;SDS011;22591;48.314;11.562;2023-05-19T04:16:41;10.05;;;7.10;;
36585;SDS011;22591;48.314;11.562;2023-05-19T04:19:07;10.50;;;5.72;;
36585;SDS011;22591;48.314;11.562;2023-05-19T04:21:32;18.40;;;6.30;;
36585;SDS011;22591;48.314;11.562;2023-05-19T04:23:58;8.98;;;6.05;;
36585;SDS011;22591;48.314;11.562;2023-05-19T04:26:24;9.82;;;6.13;;
36585;SDS011;22591;48.314;11.562;2023-05-19T04:28:51;11.07;;;6.57;;
36585;SDS011;22591;48.314;11.562;2023-05-19T04:31:17;7.90;;;6.07;;
36585;SDS011;22591;48.314;11.562;2023-05-19T04:33:45;9.57;;;6.93;;
36585;SDS011;22591;48.314;11.562;2023-05-19T04:36:12;9.75;;;7.00;;
36585;SDS011;22591;48.314;11.562;2023-05-19T04:38:38;10.40;;;6.55;;
36585;SDS011;22591;48.314;11.562;2023-05-19T04:41:04;10.73;;;6.93;;
36585;SDS011;22591;48.314;11.562;2023-05-19T04:43:30;14.80;;;6.53;;
36585;SDS011;22591;48.314;11.562;2023-05-19T04:45:56;12.50;;;6.60;;
36585;SDS011;22591;48.314;11.562;2023-05-19T04:48:22;10.43;;;6.95;;
36585;SDS011;22591;48.314;11.562;2023-05-19T04:50:48;11.73;;;6.70;;
36585;SDS011;22591;48.314;11.562;2023-05-19T04:53:15;8.73;;;6.63;;
36585;SDS011;22591;48.314;11.562;2023-05-19T04:55:41;11.35;;;6.50;;
36585;SDS011;22591;48.314;11.562;2023-05-19T04:58:07;17.05;;;6.90;;
36585;SDS011;22591;48.314;11.562;2023-05-19T05:00:33;10.15;;;6.85;;
36585;SDS011;22591;48.314;11.562;2023-05-19T05:03:01;11.20;;;7.22;;
36585;SDS011;22591;48.314;11.562;2023-05-19T05:05:31;11.73;;;7.07;;
36585;SDS011;22591;48.314;11.562;2023-05-19T05:07:56;11.00;;;6.70;;
36585;SDS011;22591;48.314;11.562;2023-05-19T05:10:22;12.18;;;6.78;;
36585;SDS011;22591;48.314;11.562;2023-05-19T05:12:48;8.15;;;6.55;;
36585;SDS011;22591;48.314;11.562;2023-05-19T05:15:14;7.25;;;6.32;;
36585;SDS011;22591;48.314;11.562;2023-05-19T05:17:40;9.68;;;7.20;;
36585;SDS011;22591;48.314;11.562;2023-05-19T05:20:06;13.85;;;7.32;;
36585;SDS011;22591;48.314;11.562;2023-05-19T05:22:32;11.43;;;7.15;;
36585;SDS011;22591;48.314;11.562;2023-05-19T05:24:58;11.48;;;6.70;;
36585;SDS011;22591;48.314;11.562;2023-05-19T05:27:25;9.43;;;6.85;;
36585;SDS011;22591;48.314;11.562;2023-05-19T05:29:51;11.23;;;7.55;;
36585;SDS011;22591;48.314;11.562;2023-05-19T05:32:17;12.43;;;6.93;;
36585;SDS011;22591;48.314;11.562;2023-05-19T05:34:42;11.77;;;6.90;;
36585;SDS011;22591;48.314;11.562;2023-05-19T05:37:08;11.77;;;7.00;;
36585;SDS011;22591;48.314;11.562;2023-05-19T05:39:33;10.55;;;7.05;;
36585;SDS011;22591;48.314;11.562;2023-05-19T05:41:59;10.05;;;6.95;;
36585;SDS011;22591;48.314;11.562;2023-05-19T05:44:25;10.45;;;7.45;;
36585;SDS011;22591;48.314;11.562;2023-05-19T05:46:50;10.18;;;6.78;;
36585;SDS011;22591;48.314;11.562;2023-05-19T05:49:16;15.05;;;7.68;;
36585;SDS011;22591;48.314;11.562;2023-05-19T05:51:42;11.20;;;7.03;;
36585;SDS011;22591;48.314;11.562;2023-05-19T05:54:08;12.48;;;7.43;;
36585;SDS011;22591;48.314;11.562;2023-05-19T05:56:36;11.30;;;7.10;;
36585;SDS011;22591;48.314;11.562;2023-05-19T05:59:02;10.32;;;6.95;;
36585;SDS011;22591;48.314;11.562;2023-05-19T06:01:27;14.40;;;6.78;;
36585;SDS011;22591;48.314;11.562;2023-05-19T06:03:54;8.95;;;7.25;;
36585;SDS011;22591;48.314;11.562;2023-05-19T06:06:20;14.02;;;7.00;;
36585;SDS011;22591;48.314;11.562;2023-05-19T06:08:46;10.63;;;6.97;;
36585;SDS011;22591;48.314;11.562;2023-05-19T06:11:11;10.07;;;7.45;;
36585;SDS011;22591;48.314;11.562;2023-05-19T06:13:37;10.13;;;7.32;;
36585;SDS011;22591;48.314;11.562;2023-05-19T06:16:03;11.63;;;7.60;;
36585;SDS011;22591;48.314;11.562;2023-05-19T06:18:29;9.95;;;7.00;;
36585;SDS011;22591;48.314;11.562;2023-05-19T06:20:55;8.13;;;7.20;;
36585;SDS011;22591;48.314;11.562;2023-05-19T06:23:21;8.63;;;6.72;;
36585;SDS011;22591;48.314;11.562;2023-05-19T06:25:46;9.68;;;6.63;;
36585;SDS011;22591;48.314;11.562;2023-05-19T06:28:12;9.18;;;6.32;;
36585;SDS011;22591;48.314;11.562;2023-05-19T06:30:37;9.10;;;5.95;;
36585;SDS011;22591;48.314;11.562;2023-05-19T06:33:03;8.27;;;6.50;;
36585;SDS011;22591;48.314;11.562;2023-05-19T06:35:29;10.80;;;6.20;;
36585;SDS011;22591;48.314;11.562;2023-05-19T06:37:54;9.18;;;6.35;;
36585;SDS011;22591;48.314;11.562;2023-05-19T06:40:20;9.65;;;6.30;;
36585;SDS011;22591;48.314;11.562;2023-05-19T06:42:46;9.07;;;6.00;;
36585;SDS011;22591;48.314;11.562;2023-05-19T06:45:12;8.93;;;6.53;;
36585;SDS011;22591;48.314;11.562;2023-05-19T06:47:38;7.15;;;6.03;;
36585;SDS011;22591;48.314;11.562;2023-05-19T06:50:06;11.32;;;6.70;;
36585;SDS011;22591;48.314;11.562;2023-05-19T06:52:33;9.88;;;7.35;;
36585;SDS011;22591;48.314;11.562;2023-05-19T06:54:59;8.45;;;6.53;;
36585;SDS011;22591;48.314;11.562;2023-05-19T06:57:24;10.20;;;6.90;;
36585;SDS011;22591;48.314;11.562;2023-05-19T06:59:50;8.95;;;7.82;;
36585;SDS011;22591;48.314;11.562;2023-05-19T07:02:16;8.65;;;7.18;;
36585;SDS011;22591;48.314;11.562;2023-05-19T07:04:41;7.88;;;6.82;;
36585;SDS011;22591;48.314;11.562;2023-05-19T07:07:07;10.35;;;6.85;;
36585;SDS011;22591;48.314;11.562;2023-05-19T07:09:32;11.98;;;7.50;;
36585;SDS011;22591;48.314;11.562;2023-05-19T07:11:58;9.95;;;7.28;;
36585;SDS011;22591;48.314;11.562;2023-05-19T07:14:25;9.02;;;7.43;;
36585;SDS011;22591;48.314;11.562;2023-05-19T07:16:50;11.25;;;7.03;;
36585;SDS011;22591;48.314;11.562;2023-05-19T07:19:16;10.38;;;7.07;;
36585;SDS011;22591;48.314;11.562;2023-05-19T07:21:43;7.55;;;6.50;;
36585;SDS011;22591;48.314;11.562;2023-05-19T07:24:09;6.45;;;5.85;;
36585;SDS011;22591;48.314;11.562;2023-05-19T07:26:35;8.90;;;6.45;;
36585;SDS011;22591;48.314;11.562;2023-05-19T07:29:01;11.02;;;6.70;;
36585;SDS011;22591;48.314;11.562;2023-05-19T07:31:26;8.50;;;6.20;;
36585;SDS011;22591;48.314;11.562;2023-05-19T07:33:52;9.27;;;7.40;;
36585;SDS011;22591;48.314;11.562;2023-05-19T07:36:17;9.73;;;7.10;;
36585;SDS011;22591;48.314;11.562;2023-05-19T07:38:44;8.63;;;6.28;;
36585;SDS011;22591;48.314;11.562;2023-05-19T07:41:10;6.53;;;6.03;;
36585;SDS011;22591;48.314;11.562;2023-05-19T07:43:36;7.78;;;6.35;;
36585;SDS011;22591;48.314;11.562;2023-05-19T07:46:01;9.45;;;6.57;;
36585;SDS011;22591;48.314;11.562;2023-05-19T07:48:27;12.52;;;6.10;;
36585;SDS011;22591;48.314;11.562;2023-05-19T07:50:53;8.38;;;6.72;;
36585;SDS011;22591;48.314;11.562;2023-05-19T07:53:19;7.03;;;5.53;;
36585;SDS011;22591;48.314;11.562;2023-05-19T07:55:46;11.18;;;7.00;;
36585;SDS011;22591;48.314;11.562;2023-05-19T07:58:12;7.22;;;6.53;;
36585;SDS011;22591;48.314;11.562;2023-05-19T08:00:38;8.13;;;5.80;;
36585;SDS011;22591;48.314;11.562;2023-05-19T08:03:07;7.97;;;6.43;;
36585;SDS011;22591;48.314;11.562;2023-05-19T08:05:33;6.93;;;6.32;;
36585;SDS011;22591;48.314;11.562;2023-05-19T08:08:00;7.93;;;5.72;;
36585;SDS011;22591;48.314;11.562;2023-05-19T08:10:25;11.02;;;6.05;;
36585;SDS011;22591;48.314;11.562;2023-05-19T08:12:51;7.68;;;5.95;;
36585;SDS011;22591;48.314;11.562;2023-05-19T08:15:17;6.13;;;5.47;;
36585;SDS011;22591;48.314;11.562;2023-05-19T08:17:43;6.43;;;5.82;;
36585;SDS011;22591;48.314;11.562;2023-05-19T08:20:09;5.65;;;5.20;;
36585;SDS011;22591;48.314;11.562;2023-05-19T08:22:36;5.53;;;5.10;;
36585;SDS011;22591;48.314;11.562;2023-05-19T08:25:02;5.40;;;5.00;;
36585;SDS011;22591;48.314;11.562;2023-05-19T08:27:29;5.30;;;4.90;;
36585;SDS011;22591;48.314;11.562;2023-05-19T08:29:54;5.20;;;4.80;;
36585;SDS011;22591;48.314;11.562;2023-05-19T08:32:21;5.85;;;5.35;;
36585;SDS011;22591;48.314;11.562;2023-05-19T08:34:46;6.80;;;4.82;;
36585;SDS011;22591;48.314;11.562;2023-05-19T08:37:12;5.85;;;5.15;;
36585;SDS011;22591;48.314;11.562;2023-05-19T08:39:38;10.65;;;5.00;;
36585;SDS011;22591;48.314;11.562;2023-05-19T08:42:03;5.78;;;5.28;;
36585;SDS011;22591;48.314;11.562;2023-05-19T08:44:31;6.28;;;5.43;;
36585;SDS011;22591;48.314;11.562;2023-05-19T08:46:58;6.10;;;4.97;;
36585;SDS011;22591;48.314;11.562;2023-05-19T08:49:26;5.53;;;5.03;;
36585;SDS011;22591;48.314;11.562;2023-05-19T08:51:54;5.93;;;5.32;;
36585;SDS011;22591;48.314;11.562;2023-05-19T08:54:45;5.15;;;4.75;;
36585;SDS011;22591;48.314;11.562;2023-05-19T08:57:25;5.75;;;5.15;;
36585;SDS011;22591;48.314;11.562;2023-05-19T08:59:51;6.07;;;5.47;;
36585;SDS011;22591;48.314;11.562;2023-05-19T09:02:18;5.95;;;5.20;;
36585;SDS011;22591;48.314;11.562;2023-05-19T09:04:45;6.40;;;5.90;;
36585;SDS011;22591;48.314;11.562;2023-05-19T09:07:14;7.50;;;5.68;;
36585;SDS011;22591;48.314;11.562;2023-05-19T09:09:41;6.10;;;5.65;;
36585;SDS011;22591;48.314;11.562;2023-05-19T09:12:10;6.45;;;5.53;;
36585;SDS011;22591;48.314;11.562;2023-05-19T09:14:37;5.68;;;5.18;;
36585;SDS011;22591;48.314;11.562;2023-05-19T09:17:03;8.45;;;5.38;;
36585;SDS011;22591;48.314;11.562;2023-05-19T09:19:29;5.38;;;5.05;;
36585;SDS011;22591;48.314;11.562;2023-05-19T09:21:58;5.68;;;4.80;;
36585;SDS011;22591;48.314;11.562;2023-05-19T09:24:30;5.88;;;5.38;;
36585;SDS011;22591;48.314;11.562;2023-05-19T09:26:55;6.57;;;5.97;;
36585;SDS011;22591;48.314;11.562;2023-05-19T09:29:21;6.13;;;5.60;;
36585;SDS011;22591;48.314;11.562;2023-05-19T09:31:48;6.85;;;6.00;;
36585;SDS011;22591;48.314;11.562;2023-05-19T09:34:14;6.47;;;5.40;;
36585;SDS011;22591;48.314;11.562;2023-05-19T09:36:40;5.93;;;5.38;;
36585;SDS011;22591;48.314;11.562;2023-05-19T09:39:15;5.78;;;5.28;;
36585;SDS011;22591;48.314;11.562;2023-05-19T09:41:41;7.32;;;5.95;;
36585;SDS011;22591;48.314;11.562;2023-05-19T09:44:20;6.55;;;5.90;;
36585;SDS011;22591;48.314;11.562;2023-05-19T09:46:53;5.78;;;5.25;;
36585;SDS011;22591;48.314;11.562;2023-05-19T09:49:22;6.03;;;5.35;;
36585;SDS011;22591;48.314;11.562;2023-05-19T09:51:49;7.28;;;5.00;;
36585;SDS011;22591;48.314;11.562;2023-05-19T09:54:22;6.80;;;5.13;;
36585;SDS011;22591;48.314;11.562;2023-05-19T09:59:24;5.60;;;5.10;;
36585;SDS011;22591;48.314;11.562;2023-05-19T10:01:53;5.88;;;5.38;;
36585;SDS011;22591;48.314;11.562;2023-05-19T10:04:23;5.43;;;4.93;;
36585;SDS011;22591;48.314;11.562;2023-05-19T10:06:51;5.57;;;5.18;;
36585;SDS011;22591;48.314;11.562;2023-05-19T10:09:19;5.18;;;4.68;;
36585;SDS011;22591;48.314;11.562;2023-05-19T10:11:52;5.15;;;4.75;;
36585;SDS011;22591;48.314;11.562;2023-05-19T10:14:36;4.95;;;4.55;;
36585;SDS011;22591;48.314;11.562;2023-05-19T10:17:02;5.30;;;4.60;;
36585;SDS011;22591;48.314;11.562;2023-05-19T10:19:28;4.82;;;4.53;;
36585;SDS011;22591;48.314;11.562;2023-05-19T10:21:54;5.38;;;4.97;;
36585;SDS011;22591;48.314;11.562;2023-05-19T10:24:20;5.60;;;4.97;;
36585;SDS011;22591;48.314;11.562;2023-05-19T10:26:48;5.45;;;4.95;;
36585;SDS011;22591;48.314;11.562;2023-05-19T10:29:27;5.72;;;5.25;;
36585;SDS011;22591;48.314;11.562;2023-05-19T10:31:59;5.40;;;4.90;;
36585;SDS011;22591;48.314;11.562;2023-05-19T10:37:24;5.80;;;5.30;;
36585;SDS011;22591;48.314;11.562;2023-05-19T10:39:57;5.60;;;5.20;;
36585;SDS011;22591;48.314;11.562;2023-05-19T10:42:28;6.72;;;5.22;;
36585;SDS011;22591;48.314;11.562;2023-05-19T10:47:39;6.57;;;5.93;;
36585;SDS011;22591;48.314;11.562;2023-05-19T10:50:08;6.22;;;5.18;;
36585;SDS011;22591;48.314;11.562;2023-05-19T10:52:37;7.07;;;6.10;;
36585;SDS011;22591;48.314;11.562;2023-05-19T10:55:07;6.20;;;5.70;;
36585;SDS011;22591;48.314;11.562;2023-05-19T10:57:33;6.78;;;6.10;;
36585;SDS011;22591;48.314;11.562;2023-05-19T11:00:05;6.80;;;6.10;;
36585;SDS011;22591;48.314;11.562;2023-05-19T11:02:53;6.55;;;5.90;;
36585;SDS011;22591;48.314;11.562;2023-05-19T11:05:35;6.60;;;6.07;;
36585;SDS011;22591;48.314;11.562;2023-05-19T11:08:01;6.68;;;5.88;;
36585;SDS011;22591;48.314;11.562;2023-05-19T11:10:29;6.72;;;5.70;;
36585;SDS011;22591;48.314;11.562;2023-05-19T11:12:55;7.80;;;6.40;;
36585;SDS011;22591;48.314;11.562;2023-05-19T11:15:23;6.30;;;5.10;;
36585;SDS011;22591;48.314;11.562;2023-05-19T11:17:51;5.90;;;5.35;;
36585;SDS011;22591;48.314;11.562;2023-05-19T11:20:24;5.90;;;5.40;;
36585;SDS011;22591;48.314;11.562;2023-05-19T11:23:03;6.18;;;5.68;;
36585;SDS011;22591;48.314;11.562;2023-05-19T11:25:45;7.72;;;5.65;;
36585;SDS011;22591;48.314;11.562;2023-05-19T11:28:16;6.35;;;5.80;;
36585;SDS011;22591;48.314;11.562;2023-05-19T11:30:47;6.70;;;6.07;;
36585;SDS011;22591;48.314;11.562;2023-05-19T11:33:15;8.13;;;5.72;;
36585;SDS011;22591;48.314;11.562;2023-05-19T11:35:44;7.00;;;5.35;;
36585;SDS011;22591;48.314;11.562;2023-05-19T11:38:11;5.25;;;4.85;;
36585;SDS011;22591;48.314;11.562;2023-05-19T11:40:38;6.13;;;5.57;;
36585;SDS011;22591;48.314;11.562;2023-05-19T11:43:05;7.35;;;5.30;;
36585;SDS011;22591;48.314;11.562;2023-05-19T11:45:31;5.50;;;5.18;;
36585;SDS011;22591;48.314;11.562;2023-05-19T11:47:57;5.32;;;4.93;;
36585;SDS011;22591;48.314;11.562;2023-05-19T11:50:24;5.57;;;5.05;;
36585;SDS011;22591;48.314;11.562;2023-05-19T11:52:50;4.63;;;4.32;;
36585;SDS011;22591;48.314;11.562;2023-05-19T11:55:17;5.28;;;4.88;;
36585;SDS011;22591;48.314;11.562;2023-05-19T11:57:59;6.03;;;5.43;;
36585;SDS011;22591;48.314;11.562;2023-05-19T12:00:26;7.57;;;6.20;;
36585;SDS011;22591;48.314;11.562;2023-05-19T12:03:00;7.28;;;6.75;;
36585;SDS011;22591;48.314;11.562;2023-05-19T12:05:26;6.70;;;6.03;;
36585;SDS011;22591;48.314;11.562;2023-05-19T12:07:53;6.60;;;6.10;;
36585;SDS011;22591;48.314;11.562;2023-05-19T12:12:49;7.00;;;6.40;;
36585;SDS011;22591;48.314;11.562;2023-05-19T12:15:17;7.03;;;6.38;;
36585;SDS011;22591;48.314;11.562;2023-05-19T12:17:49;8.27;;;5.63;;
36585;SDS011;22591;48.314;11.562;2023-05-19T12:20:16;7.70;;;6.60;;
36585;SDS011;22591;48.314;11.562;2023-05-19T12:22:43;6.97;;;6.30;;
36585;SDS011;22591;48.314;11.562;2023-05-19T12:25:10;6.70;;;6.00;;
36585;SDS011;22591;48.314;11.562;2023-05-19T12:27:36;6.90;;;6.40;;
36585;SDS011;22591;48.314;11.562;2023-05-19T12:30:02;6.40;;;5.95;;
36585;SDS011;22591;48.314;11.562;2023-05-19T12:32:28;6.57;;;6.05;;
36585;SDS011;22591;48.314;11.562;2023-05-19T12:34:54;6.80;;;6.30;;
36585;SDS011;22591;48.314;11.562;2023-05-19T12:37:21;5.65;;;5.25;;
36585;SDS011;22591;48.314;11.562;2023-05-19T12:39:47;6.57;;;6.13;;
36585;SDS011;22591;48.314;11.562;2023-05-19T12:42:13;7.78;;;6.82;;
36585;SDS011;22591;48.314;11.562;2023-05-19T12:44:46;8.98;;;7.22;;
36585;SDS011;22591;48.314;11.562;2023-05-19T12:47:15;7.20;;;6.57;;
36585;SDS011;22591;48.314;11.562;2023-05-19T12:50:01;8.05;;;7.35;;
36585;SDS011;22591;48.314;11.562;2023-05-19T12:52:29;5.47;;;4.97;;
36585;SDS011;22591;48.314;11.562;2023-05-19T12:54:56;7.55;;;6.78;;
36585;SDS011;22591;48.314;11.562;2023-05-19T12:57:24;7.00;;;6.40;;
36585;SDS011;22591;48.314;11.562;2023-05-19T12:59:50;6.70;;;5.57;;
36585;SDS011;22591;48.314;11.562;2023-05-19T13:02:16;7.40;;;6.80;;
36585;SDS011;22591;48.314;11.562;2023-05-19T13:04:42;8.85;;;7.13;;
36585;SDS011;22591;48.314;11.562;2023-05-19T13:07:08;7.50;;;6.93;;
36585;SDS011;22591;48.314;11.562;2023-05-19T13:09:34;7.70;;;7.03;;
36585;SDS011;22591;48.314;11.562;2023-05-19T13:12:00;8.75;;;7.18;;
36585;SDS011;22591;48.314;11.562;2023-05-19T13:14:26;9.48;;;7.35;;
36585;SDS011;22591;48.314;11.562;2023-05-19T13:16:51;9.23;;;7.60;;
36585;SDS011;22591;48.314;11.562;2023-05-19T13:19:17;9.13;;;8.32;;
36585;SDS011;22591;48.314;11.562;2023-05-19T13:21:43;8.70;;;7.93;;
36585;SDS011;22591;48.314;11.562;2023-05-19T13:24:11;8.10;;;7.40;;
36585;SDS011;22591;48.314;11.562;2023-05-19T13:26:38;8.82;;;7.40;;
36585;SDS011;22591;48.314;11.562;2023-05-19T13:29:05;8.88;;;8.05;;
36585;SDS011;22591;48.314;11.562;2023-05-19T13:31:31;7.30;;;6.80;;
36585;SDS011;22591;48.314;11.562;2023-05-19T13:33:56;8.98;;;7.90;;
36585;SDS011;22591;48.314;11.562;2023-05-19T13:36:22;8.10;;;7.40;;
36585;SDS011;22591;48.314;11.562;2023-05-19T13:38:47;8.30;;;7.60;;
36585;SDS011;22591;48.314;11.562;2023-05-19T13:41:13;9.30;;;8.32;;
36585;SDS011;22591;48.314;11.562;2023-05-19T13:43:38;8.70;;;7.97;;
36585;SDS011;22591;48.314;11.562;2023-05-19T13:46:04;8.10;;;7.45;;
36585;SDS011;22591;48.314;11.562;2023-05-19T13:48:29;7.88;;;7.15;;
36585;SDS011;22591;48.314;11.562;2023-05-19T13:50:55;9.52;;;8.07;;
36585;SDS011;22591;48.314;11.562;2023-05-19T13:53:20;8.07;;;7.07;;
36585;SDS011;22591;48.314;11.562;2023-05-19T13:55:46;7.30;;;6.53;;
36585;SDS011;22591;48.314;11.562;2023-05-19T13:58:12;7.32;;;6.70;;
36585;SDS011;22591;48.314;11.562;2023-05-19T14:00:39;8.27;;;7.40;;
36585;SDS011;22591;48.314;11.562;2023-05-19T14:03:05;7.03;;;6.43;;
36585;SDS011;22591;48.314;11.562;2023-05-19T14:05:31;7.03;;;6.53;;
36585;SDS011;22591;48.314;11.562;2023-05-19T14:07:57;6.10;;;5.70;;
36585;SDS011;22591;48.314;11.562;2023-05-19T14:10:24;5.80;;;5.40;;
36585;SDS011;22591;48.314;11.562;2023-05-19T14:12:50;6.78;;;6.28;;
36585;SDS011;22591;48.314;11.562;2023-05-19T14:15:17;6.22;;;5.68;;
36585;SDS011;22591;48.314;11.562;2023-05-19T14:17:43;6.68;;;6.00;;
36585;SDS011;22591;48.314;11.562;2023-05-19T14:20:08;6.75;;;6.25;;
36585;SDS011;22591;48.314;11.562;2023-05-19T14:22:34;6.35;;;5.78;;
36585;SDS011;22591;48.314;11.562;2023-05-19T14:25:00;6.93;;;6.25;;
36585;SDS011;22591;48.314;11.562;2023-05-19T14:27:26;5.53;;;5.05;;
36585;SDS011;22591;48.314;11.562;2023-05-19T14:29:51;6.03;;;5.10;;
36585;SDS011;22591;48.314;11.562;2023-05-19T14:32:17;5.07;;;4.78;;
36585;SDS011;22591;48.314;11.562;2023-05-19T14:34:42;5.15;;;4.65;;
36585;SDS011;22591;48.314;11.562;2023-05-19T14:37:08;4.18;;;3.88;;
36585;SDS011;22591;48.314;11.562;2023-05-19T14:39:33;7.95;;;5.00;;
36585;SDS011;22591;48.314;11.562;2023-05-19T14:41:59;6.20;;;5.00;;
36585;SDS011;22591;48.314;11.562;2023-05-19T14:44:33;5.15;;;4.63;;
36585;SDS011;22591;48.314;11.562;2023-05-19T14:47:01;4.18;;;3.88;;
36585;SDS011;22591;48.314;11.562;2023-05-19T14:49:27;4.90;;;4.55;;
36585;SDS011;22591;48.314;11.562;2023-05-19T14:51:53;5.03;;;4.53;;
36585;SDS011;22591;48.314;11.562;2023-05-19T14:54:19;5.30;;;5.00;;
36585;SDS011;22591;48.314;11.562;2023-05-19T14:56:44;5.38;;;4.88;;
36585;SDS011;22591;48.314;11.562;2023-05-19T14:59:10;4.60;;;4.30;;
36585;SDS011;22591;48.314;11.562;2023-05-19T15:01:35;4.80;;;4.40;;
36585;SDS011;22591;48.314;11.562;2023-05-19T15:04:01;4.38;;;4.07;;